Time;durP1;ratioP1;P1;durP2;ratioP2;P2;SDS_P1;SDS_P2;PMS_P1;PMS_P2;Temp;Humidity;BMP_temperature;BMP_pressure;BME280_temperature;BME280_humidity;BME280_pressure;Samples;Min_cycle;Max_cycle;Signal;HPM_P1;HPM_P2
2023/06/08 00:02:04;;;;;;;15.80;9.63;;;12.60;99.90;;;;;;5042015;28;20040;-35
2023/06/08 00:04:32;;;;;;;13.50;10.68;;;12.60;99.90;;;;;;5038651;28;20043;-34
2023/06/08 00:07:08;;;;;;;17.98;11.98;;;12.60;99.90;;;;;;5049883;28;20033;-35
2023/06/08 00:09:37;;;;;;;17.48;11.52;;;12.60;99.90;;;;;;5038271;28;20461;-34
2023/06/08 00:12:04;;;;;;;15.93;10.70;;;12.60;99.90;;;;;;5050471;28;20136;-34
2023/06/08 00:14:30;;;;;;;17.35;11.10;;;12.60;99.90;;;;;;5051359;28;20119;-36
2023/06/08 00:16:57;;;;;;;16.67;11.68;;;12.60;99.90;;;;;;5052125;28;20024;-37
2023/06/08 00:19:24;;;;;;;16.63;10.70;;;12.70;99.90;;;;;;5048030;28;20029;-34
2023/06/08 00:21:50;;;;;;;14.05;10.73;;;12.60;99.90;;;;;;5052886;28;20068;-34
2023/06/08 00:24:20;;;;;;;17.17;11.50;;;12.60;99.90;;;;;;5045668;28;20540;-34
2023/06/08 00:26:45;;;;;;;17.23;11.50;;;12.60;99.90;;;;;;5053303;28;20115;-35
2023/06/08 00:29:11;;;;;;;15.00;12.32;;;12.60;99.90;;;;;;5052401;28;20120;-35
2023/06/08 00:31:38;;;;;;;15.38;10.10;;;12.60;99.90;;;;;;5050437;28;20051;-34
2023/06/08 00:34:04;;;;;;;15.68;10.60;;;12.70;99.90;;;;;;5052382;28;20463;-34
2023/06/08 00:36:30;;;;;;;15.55;11.23;;;12.60;99.90;;;;;;5044876;28;20517;-34
2023/06/08 00:38:55;;;;;;;16.35;11.10;;;12.60;99.90;;;;;;5050109;28;20039;-35
2023/06/08 00:41:21;;;;;;;16.70;10.55;;;12.60;99.90;;;;;;5051340;28;20040;-34
2023/06/08 00:43:47;;;;;;;15.98;10.98;;;12.60;99.90;;;;;;5052953;28;20389;-34
2023/06/08 00:46:17;;;;;;;15.95;11.10;;;12.50;99.90;;;;;;5050369;28;20041;-34
2023/06/08 00:48:43;;;;;;;17.92;11.95;;;12.50;99.90;;;;;;5052883;28;20036;-35
2023/06/08 00:51:11;;;;;;;20.73;13.48;;;12.40;99.90;;;;;;5052158;28;20044;-34
2023/06/08 00:53:37;;;;;;;15.25;11.85;;;12.40;99.90;;;;;;5049167;28;20041;-35
2023/06/08 00:56:05;;;;;;;16.95;11.70;;;12.30;99.90;;;;;;5052260;28;20033;-34
2023/06/08 00:58:33;;;;;;;17.67;12.65;;;12.30;99.90;;;;;;5043399;28;20045;-35
2023/06/08 01:01:01;;;;;;;16.98;10.77;;;12.30;99.90;;;;;;5048516;28;20036;-34
2023/06/08 01:03:35;;;;;;;19.33;11.75;;;12.30;99.90;;;;;;5047935;28;20536;-35
2023/06/08 01:06:08;;;;;;;17.25;11.70;;;12.30;99.90;;;;;;5048614;28;20043;-36
2023/06/08 01:08:59;;;;;;;18.52;11.88;;;12.30;99.90;;;;;;5048155;28;20040;-35
2023/06/08 01:11:42;;;;;;;15.57;11.93;;;12.20;99.90;;;;;;5039578;28;20097;-35
2023/06/08 01:14:34;;;;;;;15.35;11.63;;;12.20;99.90;;;;;;5060155;28;20111;-34
2023/06/08 01:17:02;;;;;;;16.70;11.85;;;12.20;99.90;;;;;;5035535;28;20029;-34
2023/06/08 01:19:52;;;;;;;17.00;11.02;;;12.20;99.90;;;;;;5044939;28;20112;-34
2023/06/08 01:22:27;;;;;;;21.85;12.20;;;12.20;99.90;;;;;;5051209;28;20044;-34
2023/06/08 01:24:56;;;;;;;19.92;12.68;;;12.20;99.90;;;;;;5045953;28;20094;-34
2023/06/08 01:27:25;;;;;;;19.92;12.60;;;12.20;99.90;;;;;;5042594;28;20512;-34
2023/06/08 01:29:51;;;;;;;18.75;10.98;;;12.20;99.90;;;;;;5050139;28;20127;-34
2023/06/08 01:32:18;;;;;;;16.70;11.98;;;12.20;99.90;;;;;;5048453;28;20036;-34
2023/06/08 01:34:45;;;;;;;16.17;11.00;;;12.30;99.90;;;;;;5055825;28;20090;-35
2023/06/08 01:37:29;;;;;;;20.08;12.07;;;12.30;99.90;;;;;;5053992;28;20127;-34
2023/06/08 01:40:12;;;;;;;17.58;12.07;;;12.30;99.90;;;;;;5055290;28;20123;-34
2023/06/08 01:42:43;;;;;;;15.63;11.18;;;12.30;99.90;;;;;;5046625;28;20033;-34
2023/06/08 01:45:18;;;;;;;16.75;11.70;;;12.30;99.90;;;;;;5055807;28;20121;-34
2023/06/08 01:47:47;;;;;;;15.48;10.73;;;12.30;99.90;;;;;;5055909;28;20097;-37
2023/06/08 01:50:13;;;;;;;17.48;12.13;;;12.30;99.90;;;;;;5051469;28;20048;-34
2023/06/08 01:52:41;;;;;;;17.23;10.65;;;12.30;99.90;;;;;;5054920;28;20508;-35
2023/06/08 01:55:17;;;;;;;16.25;11.40;;;12.30;99.90;;;;;;5050088;28;20029;-34
2023/06/08 01:57:43;;;;;;;16.60;11.48;;;12.30;99.90;;;;;;5052653;28;20032;-34
2023/06/08 02:00:10;;;;;;;15.85;11.13;;;12.30;99.90;;;;;;5050656;28;20097;-34
2023/06/08 02:02:37;;;;;;;17.33;11.73;;;12.30;99.90;;;;;;5048591;28;20040;-34
2023/06/08 02:05:06;;;;;;;20.58;11.90;;;12.30;99.90;;;;;;5047658;28;20037;-34
2023/06/08 02:07:31;;;;;;;15.52;10.65;;;12.20;99.90;;;;;;5046220;28;20111;-34
2023/06/08 02:09:57;;;;;;;13.75;10.65;;;12.20;99.90;;;;;;5030244;28;20057;-34
2023/06/08 02:12:23;;;;;;;17.42;10.02;;;12.20;99.90;;;;;;5073027;28;20127;-34
2023/06/08 02:14:48;;;;;;;15.25;10.20;;;12.30;99.90;;;;;;5055184;28;20089;-36
2023/06/08 02:17:18;;;;;;;14.88;10.48;;;12.30;99.90;;;;;;5054034;28;20107;-34
2023/06/08 02:19:44;;;;;;;15.52;9.98;;;12.30;99.90;;;;;;5054495;28;20036;-34
2023/06/08 02:22:10;;;;;;;16.95;10.95;;;12.30;99.90;;;;;;5045448;28;20502;-34
2023/06/08 02:24:36;;;;;;;19.90;11.43;;;12.30;99.90;;;;;;5046234;28;20033;-34
2023/06/08 02:27:02;;;;;;;18.48;10.60;;;12.40;99.90;;;;;;5049941;28;20503;-34
2023/06/08 02:29:28;;;;;;;17.08;10.10;;;12.30;99.90;;;;;;5051284;28;20040;-34
2023/06/08 02:31:54;;;;;;;16.88;10.35;;;12.40;99.90;;;;;;5048007;28;20041;-34
2023/06/08 02:34:19;;;;;;;17.80;9.63;;;12.30;99.90;;;;;;5052572;28;20493;-34
2023/06/08 02:36:47;;;;;;;15.25;9.70;;;12.30;99.90;;;;;;5047467;28;20033;-34
2023/06/08 02:39:14;;;;;;;13.85;9.05;;;12.30;99.90;;;;;;5052713;28;20041;-34
2023/06/08 02:41:40;;;;;;;15.18;9.25;;;12.30;99.90;;;;;;5050091;28;20040;-34
2023/06/08 02:44:06;;;;;;;15.95;9.15;;;12.40;99.90;;;;;;5046573;28;20397;-36
2023/06/08 02:46:32;;;;;;;13.82;9.38;;;12.40;99.90;;;;;;5054123;28;20048;-35
2023/06/08 02:49:00;;;;;;;13.45;8.60;;;12.40;99.90;;;;;;5046151;28;20041;-33
2023/06/08 02:51:26;;;;;;;17.60;9.73;;;12.40;99.90;;;;;;5050053;28;20040;-34
2023/06/08 02:53:53;;;;;;;17.02;9.60;;;12.40;99.90;;;;;;5051044;28;20049;-36
2023/06/08 02:56:18;;;;;;;14.50;9.85;;;12.40;99.90;;;;;;5052528;28;20085;-35
2023/06/08 02:58:46;;;;;;;20.13;9.27;;;12.30;99.90;;;;;;5047852;28;20041;-34
2023/06/08 03:01:15;;;;;;;13.90;8.75;;;12.30;99.90;;;;;;5054174;28;20048;-35
2023/06/08 03:03:43;;;;;;;14.65;9.02;;;12.30;99.90;;;;;;5052619;28;20036;-34
2023/06/08 03:06:09;;;;;;;17.30;9.57;;;12.30;99.90;;;;;;5045651;28;20052;-34
2023/06/08 03:08:38;;;;;;;13.43;8.95;;;12.30;99.90;;;;;;5051597;28;20039;-34
2023/06/08 03:11:04;;;;;;;17.92;9.93;;;12.30;99.90;;;;;;5054048;28;20070;-35
2023/06/08 03:13:30;;;;;;;14.30;9.60;;;12.30;99.90;;;;;;5050292;28;20040;-34
2023/06/08 03:15:56;;;;;;;14.65;9.35;;;12.20;99.90;;;;;;5046984;28;20032;-34
2023/06/08 03:18:24;;;;;;;16.65;9.30;;;12.20;99.90;;;;;;5050153;28;20089;-34
2023/06/08 03:20:53;;;;;;;14.38;8.82;;;12.10;99.90;;;;;;5049741;28;20037;-34
2023/06/08 03:23:22;;;;;;;16.73;10.38;;;12.10;99.90;;;;;;5053196;28;20097;-34
2023/06/08 03:25:49;;;;;;;13.38;8.80;;;12.10;99.90;;;;;;5050569;28;20036;-34
2023/06/08 03:28:18;;;;;;;14.05;9.75;;;12.10;99.90;;;;;;5053941;28;20041;-34
2023/06/08 03:30:44;;;;;;;17.00;9.18;;;12.20;99.90;;;;;;5049501;28;20037;-35
2023/06/08 03:33:11;;;;;;;15.48;10.25;;;12.20;99.90;;;;;;5044651;28;20033;-34
2023/06/08 03:35:38;;;;;;;15.50;10.10;;;12.10;99.90;;;;;;5049389;28;20071;-34
2023/06/08 03:38:03;;;;;;;20.83;10.85;;;12.10;99.90;;;;;;5042235;28;20608;-34
2023/06/08 03:40:29;;;;;;;22.15;12.82;;;12.10;99.90;;;;;;5053063;28;20123;-34
2023/06/08 03:42:55;;;;;;;17.23;11.13;;;12.10;99.90;;;;;;5052386;28;20514;-36
2023/06/08 03:45:21;;;;;;;18.77;11.20;;;12.00;99.90;;;;;;5051401;28;20036;-34
2023/06/08 03:47:47;;;;;;;19.33;11.05;;;12.00;99.90;;;;;;5047614;28;20039;-34
2023/06/08 03:50:12;;;;;;;18.92;10.13;;;11.90;99.90;;;;;;5050489;28;20417;-34
2023/06/08 03:52:38;;;;;;;18.65;11.05;;;11.90;99.90;;;;;;5036943;28;20063;-35
2023/06/08 03:55:08;;;;;;;20.05;11.10;;;12.00;99.90;;;;;;5049536;28;20036;-34
2023/06/08 03:57:35;;;;;;;22.95;13.32;;;12.00;99.90;;;;;;5039678;28;20533;-34
2023/06/08 04:00:01;;;;;;;18.23;10.82;;;12.00;99.90;;;;;;5050282;28;20040;-35
2023/06/08 04:02:27;;;;;;;21.15;10.90;;;12.00;99.90;;;;;;5052717;28;20032;-34
2023/06/08 04:04:53;;;;;;;13.45;10.00;;;12.00;99.90;;;;;;5051588;28;20040;-35
2023/06/08 04:07:20;;;;;;;20.88;10.95;;;12.10;99.90;;;;;;5036717;28;20041;-34
2023/06/08 04:09:46;;;;;;;18.05;10.65;;;12.10;99.90;;;;;;5047693;28;20047;-36
2023/06/08 04:12:12;;;;;;;18.25;10.93;;;12.10;99.90;;;;;;5043705;28;20041;-34
2023/06/08 04:14:38;;;;;;;17.88;11.38;;;12.10;99.90;;;;;;5049267;28;20132;-34
2023/06/08 04:17:04;;;;;;;19.35;11.15;;;12.10;99.90;;;;;;5052507;28;20037;-34
2023/06/08 04:19:30;;;;;;;16.67;11.23;;;12.00;99.90;;;;;;5048629;28;20036;-34
2023/06/08 04:21:56;;;;;;;22.20;10.90;;;12.00;99.90;;;;;;5052742;28;20406;-34
2023/06/08 04:24:28;;;;;;;16.13;10.30;;;12.00;99.90;;;;;;5052731;28;20044;-34
2023/06/08 04:26:55;;;;;;;17.38;10.18;;;12.00;99.90;;;;;;5053567;28;20048;-34
2023/06/08 04:29:21;;;;;;;16.95;10.57;;;11.90;99.90;;;;;;5032872;28;20044;-34
2023/06/08 04:31:47;;;;;;;18.45;11.43;;;11.90;99.90;;;;;;5052986;28;20047;-35
2023/06/08 04:34:12;;;;;;;23.35;10.38;;;12.00;99.90;;;;;;5051499;28;20042;-36
2023/06/08 04:36:43;;;;;;;17.63;10.10;;;12.00;99.90;;;;;;5034921;28;20037;-34
2023/06/08 04:39:09;;;;;;;14.93;10.20;;;12.10;99.90;;;;;;5052144;28;20037;-36
2023/06/08 04:41:36;;;;;;;18.83;10.02;;;12.10;99.90;;;;;;5045202;28;20437;-35
2023/06/08 04:44:03;;;;;;;18.00;10.45;;;12.10;99.90;;;;;;5044350;28;20033;-34
2023/06/08 04:46:30;;;;;;;16.67;10.32;;;12.20;99.90;;;;;;5034157;28;20115;-34
2023/06/08 04:48:56;;;;;;;16.85;10.30;;;12.20;99.90;;;;;;5065197;28;20032;-35
2023/06/08 04:51:29;;;;;;;18.00;10.48;;;12.20;99.90;;;;;;5050347;28;20036;-34
2023/06/08 04:53:59;;;;;;;15.20;10.33;;;12.30;99.90;;;;;;5047774;28;20036;-34
2023/06/08 04:56:29;;;;;;;16.98;10.35;;;12.30;99.90;;;;;;5044971;28;20037;-35
2023/06/08 04:58:58;;;;;;;16.45;10.50;;;12.30;99.90;;;;;;5054068;28;20051;-35
2023/06/08 05:01:24;;;;;;;17.27;10.43;;;12.40;99.90;;;;;;5052577;28;20451;-33
2023/06/08 05:03:50;;;;;;;16.55;10.35;;;12.40;99.90;;;;;;5054448;28;20043;-33
2023/06/08 05:06:16;;;;;;;19.63;9.88;;;12.50;99.90;;;;;;5056821;28;20506;-34
2023/06/08 05:08:41;;;;;;;22.20;10.95;;;12.50;99.90;;;;;;5056074;28;20110;-34
2023/06/08 05:11:08;;;;;;;20.70;9.85;;;12.60;99.90;;;;;;5056327;28;20036;-33
2023/06/08 05:13:34;;;;;;;18.27;11.02;;;12.60;99.90;;;;;;5056109;28;20461;-33
2023/06/08 05:16:00;;;;;;;17.17;10.75;;;12.60;99.90;;;;;;5050832;28;20064;-33
2023/06/08 05:18:26;;;;;;;18.42;10.45;;;12.60;99.90;;;;;;5044919;28;20037;-34
2023/06/08 05:20:52;;;;;;;16.02;10.23;;;12.60;99.90;;;;;;5042070;28;20067;-33
2023/06/08 05:23:17;;;;;;;18.33;10.27;;;12.60;99.90;;;;;;5044728;28;20040;-33
2023/06/08 05:25:43;;;;;;;17.42;10.70;;;12.60;99.90;;;;;;5046828;28;20044;-35
2023/06/08 05:28:09;;;;;;;16.80;10.00;;;12.60;99.90;;;;;;5044407;28;20564;-34
2023/06/08 05:30:35;;;;;;;15.25;10.70;;;12.60;99.90;;;;;;5039506;28;20041;-34
2023/06/08 05:33:01;;;;;;;19.38;9.80;;;12.70;99.90;;;;;;5044706;28;20042;-33
2023/06/08 05:35:27;;;;;;;14.88;10.35;;;12.70;99.90;;;;;;5049964;28;20481;-34
2023/06/08 05:37:53;;;;;;;19.80;11.20;;;12.80;99.90;;;;;;5051947;28;20045;-34
2023/06/08 05:40:19;;;;;;;23.75;11.38;;;12.80;99.90;;;;;;5060059;28;20075;-34
2023/06/08 05:42:45;;;;;;;15.85;10.07;;;12.90;99.90;;;;;;5052706;28;20383;-33
2023/06/08 05:45:11;;;;;;;13.52;10.25;;;12.90;99.90;;;;;;5055698;28;20178;-33
2023/06/08 05:47:37;;;;;;;16.85;10.82;;;13.10;99.90;;;;;;5055660;28;20036;-34
2023/06/08 05:50:04;;;;;;;16.33;10.55;;;13.10;99.90;;;;;;5047784;28;20036;-34
2023/06/08 05:52:32;;;;;;;17.23;10.32;;;13.10;99.90;;;;;;5043027;28;20171;-34
2023/06/08 05:55:00;;;;;;;16.95;10.32;;;13.20;99.90;;;;;;5049310;28;20036;-34
2023/06/08 05:57:26;;;;;;;16.83;9.52;;;13.20;99.90;;;;;;5049553;28;20033;-34
2023/06/08 05:59:51;;;;;;;16.25;9.75;;;13.30;99.90;;;;;;5052783;28;20040;-33
2023/06/08 06:02:17;;;;;;;11.38;9.02;;;13.30;99.90;;;;;;5055091;28;20047;-33
2023/06/08 06:04:43;;;;;;;13.57;9.48;;;13.40;99.90;;;;;;5053834;28;20040;-36
2023/06/08 06:07:09;;;;;;;16.45;8.73;;;13.50;99.90;;;;;;5048288;28;20041;-36
2023/06/08 06:09:35;;;;;;;16.02;9.18;;;13.60;99.90;;;;;;5052937;28;20386;-35
2023/06/08 06:12:01;;;;;;;10.10;7.50;;;13.70;99.90;;;;;;5047351;28;20033;-34
2023/06/08 06:14:38;;;;;;;11.95;8.23;;;13.80;99.90;;;;;;5048312;28;20044;-35
2023/06/08 06:17:05;;;;;;;13.75;8.80;;;13.90;99.90;;;;;;5048387;28;20120;-34
2023/06/08 06:19:36;;;;;;;14.48;8.80;;;14.00;99.90;;;;;;5050280;28;20041;-34
2023/06/08 06:22:03;;;;;;;17.00;8.75;;;14.10;99.90;;;;;;5050139;28;20079;-36
2023/06/08 06:24:29;;;;;;;14.40;8.40;;;14.20;99.90;;;;;;5041658;28;20033;-34
2023/06/08 06:26:54;;;;;;;12.45;8.48;;;14.30;99.90;;;;;;5050428;28;20040;-34
2023/06/08 06:29:20;;;;;;;14.82;8.07;;;14.40;99.90;;;;;;5047962;28;20040;-34
2023/06/08 06:31:46;;;;;;;13.52;7.60;;;14.50;99.90;;;;;;5048413;28;20029;-34
2023/06/08 06:34:12;;;;;;;13.90;7.68;;;14.60;99.90;;;;;;5047572;28;20041;-37
2023/06/08 06:36:37;;;;;;;12.25;7.85;;;14.70;99.90;;;;;;5051605;28;20516;-35
2023/06/08 06:39:03;;;;;;;12.00;7.68;;;14.80;99.90;;;;;;5051289;28;20470;-34
2023/06/08 06:41:29;;;;;;;8.65;7.30;;;14.80;99.90;;;;;;5047165;28;20044;-34
2023/06/08 06:43:54;;;;;;;15.43;8.30;;;14.90;99.90;;;;;;5049132;28;20036;-34
2023/06/08 06:46:21;;;;;;;13.45;8.18;;;14.90;99.90;;;;;;5052954;28;20162;-36
2023/06/08 06:48:47;;;;;;;13.57;7.50;;;15.00;99.90;;;;;;5036872;28;20424;-34
2023/06/08 06:51:13;;;;;;;12.88;7.68;;;15.10;99.90;;;;;;5045246;28;20041;-34
2023/06/08 06:53:38;;;;;;;13.45;8.05;;;15.20;99.90;;;;;;5050874;28;20036;-33
2023/06/08 06:56:04;;;;;;;13.50;7.65;;;15.30;99.90;;;;;;5039130;28;20079;-35
2023/06/08 06:58:31;;;;;;;10.45;7.03;;;15.40;99.90;;;;;;5050192;28;20055;-34
2023/06/08 07:00:57;;;;;;;11.90;7.18;;;15.50;99.90;;;;;;5049328;28;20119;-37
2023/06/08 07:03:26;;;;;;;15.25;7.25;;;15.60;99.90;;;;;;5043730;28;20048;-36
2023/06/08 07:05:58;;;;;;;12.02;7.13;;;15.70;99.90;;;;;;5051895;28;20075;-33
2023/06/08 07:08:26;;;;;;;11.85;7.45;;;15.70;99.90;;;;;;5046049;28;20040;-34
2023/06/08 07:10:52;;;;;;;12.52;7.00;;;15.70;99.90;;;;;;5048592;28;20119;-36
2023/06/08 07:13:18;;;;;;;9.00;6.47;;;15.70;99.90;;;;;;5053602;28;20115;-34
2023/06/08 07:15:43;;;;;;;10.55;7.07;;;15.90;99.90;;;;;;5049331;28;20512;-34
2023/06/08 07:18:09;;;;;;;10.02;6.75;;;16.10;99.90;;;;;;5050458;28;20103;-34
2023/06/08 07:20:35;;;;;;;10.00;6.78;;;16.30;99.90;;;;;;5052042;28;20033;-35
2023/06/08 07:23:01;;;;;;;12.80;6.75;;;16.40;99.90;;;;;;5046479;28;20115;-34
2023/06/08 07:25:26;;;;;;;10.75;6.70;;;16.50;99.90;;;;;;5047939;28;20044;-34
2023/06/08 07:27:52;;;;;;;11.63;7.20;;;16.60;99.90;;;;;;5053694;28;20037;-34
2023/06/08 07:30:18;;;;;;;12.85;7.82;;;16.80;99.90;;;;;;5051791;28;20028;-34
2023/06/08 07:32:43;;;;;;;12.43;7.40;;;16.90;99.90;;;;;;5050892;28;20037;-34
2023/06/08 07:35:10;;;;;;;10.68;6.72;;;17.00;99.90;;;;;;5053685;28;20040;-36
2023/06/08 07:37:36;;;;;;;10.93;6.85;;;17.10;99.90;;;;;;5053914;28;20037;-35
2023/06/08 07:40:07;;;;;;;11.43;7.03;;;17.20;99.90;;;;;;5045417;28;20083;-36
2023/06/08 07:42:33;;;;;;;11.98;8.05;;;17.20;99.90;;;;;;5052204;28;20098;-34
2023/06/08 07:44:58;;;;;;;14.45;7.18;;;17.20;99.90;;;;;;5048896;28;20032;-35
2023/06/08 07:47:24;;;;;;;11.98;7.13;;;17.30;99.90;;;;;;5050757;28;20128;-34
2023/06/08 07:49:50;;;;;;;11.05;6.97;;;17.30;99.90;;;;;;5065128;28;20569;-36
2023/06/08 07:52:15;;;;;;;14.20;8.20;;;17.30;99.90;;;;;;5039285;28;20083;-34
2023/06/08 07:54:41;;;;;;;12.98;7.75;;;17.70;99.90;;;;;;5051847;28;20033;-34
2023/06/08 07:57:07;;;;;;;11.60;7.25;;;18.00;99.90;;;;;;5049363;28;20024;-36
2023/06/08 07:59:33;;;;;;;11.70;7.32;;;18.20;99.90;;;;;;5046893;28;20029;-34
2023/06/08 08:02:00;;;;;;;11.20;6.97;;;18.50;99.90;;;;;;5033904;28;20513;-34
2023/06/08 08:04:26;;;;;;;13.23;7.72;;;19.00;99.90;;;;;;5048244;28;20044;-34
2023/06/08 08:06:51;;;;;;;12.38;7.25;;;19.30;99.90;;;;;;5039544;28;20047;-35
2023/06/08 08:09:17;;;;;;;9.65;6.57;;;19.50;99.90;;;;;;5051447;28;20048;-34
2023/06/08 08:11:43;;;;;;;10.82;7.53;;;19.70;99.90;;;;;;5046246;28;20068;-34
2023/06/08 08:14:10;;;;;;;15.15;8.30;;;19.80;99.90;;;;;;5035626;28;20033;-34
2023/06/08 08:16:39;;;;;;;11.98;6.72;;;19.70;99.90;;;;;;5045499;28;20518;-34
2023/06/08 08:19:05;;;;;;;12.13;7.00;;;19.70;99.90;;;;;;5050335;28;20393;-34
2023/06/08 08:21:31;;;;;;;11.55;6.50;;;19.50;99.90;;;;;;5052866;28;20111;-34
2023/06/08 08:23:57;;;;;;;11.38;6.47;;;19.50;99.90;;;;;;5045066;28;20620;-34
2023/06/08 08:26:23;;;;;;;10.73;6.32;;;19.70;99.90;;;;;;5047079;28;20078;-35
2023/06/08 08:28:49;;;;;;;8.73;6.13;;;20.00;99.90;;;;;;5041457;28;20100;-36
2023/06/08 08:31:14;;;;;;;11.02;6.18;;;20.20;99.90;;;;;;5039197;28;20123;-34
2023/06/08 08:33:40;;;;;;;9.57;5.75;;;20.40;99.90;;;;;;5052397;28;20116;-35
2023/06/08 08:36:06;;;;;;;11.85;7.07;;;20.30;99.90;;;;;;5048479;28;20051;-35
2023/06/08 08:38:32;;;;;;;10.43;5.82;;;20.10;99.90;;;;;;5053922;28;20037;-34
2023/06/08 08:41:05;;;;;;;10.95;5.57;;;20.00;99.90;;;;;;5051533;28;20037;-34
2023/06/08 08:43:49;;;;;;;9.20;5.65;;;19.80;99.90;;;;;;5054063;28;20044;-35
2023/06/08 08:46:18;;;;;;;9.05;5.28;;;19.80;99.90;;;;;;5055905;28;20044;-37
2023/06/08 08:48:43;;;;;;;10.38;5.82;;;19.80;99.90;;;;;;5046527;28;20367;-35
2023/06/08 08:51:20;;;;;;;6.85;5.30;;;19.90;99.90;;;;;;5056298;28;20041;-37
2023/06/08 08:53:50;;;;;;;8.77;5.80;;;20.10;99.90;;;;;;5054453;28;20537;-34
2023/06/08 08:56:20;;;;;;;9.82;5.65;;;20.30;99.90;;;;;;5055741;28;20033;-34
2023/06/08 08:58:53;;;;;;;8.48;5.50;;;20.60;99.90;;;;;;5050759;28;20410;-35
2023/06/08 09:01:20;;;;;;;9.23;5.10;;;20.70;99.90;;;;;;5056369;28;20052;-35
2023/06/08 09:03:46;;;;;;;9.15;5.22;;;20.90;99.90;;;;;;5055057;28;20040;-35
2023/06/08 09:06:12;;;;;;;8.27;5.05;;;21.30;99.90;;;;;;5055655;28;20033;-35
2023/06/08 09:08:38;;;;;;;9.70;5.60;;;21.60;99.90;;;;;;5043515;28;20120;-35
2023/06/08 09:11:06;;;;;;;10.18;5.53;;;22.00;99.90;;;;;;5055400;28;20040;-35
2023/06/08 09:13:34;;;;;;;7.05;5.07;;;22.20;99.90;;;;;;5052519;28;20067;-35
2023/06/08 09:16:17;;;;;;;8.10;5.07;;;22.40;99.90;;;;;;5048145;28;20107;-35
2023/06/08 09:19:05;;;;;;;15.57;4.82;;;22.70;99.90;;;;;;5042444;28;20485;-34
2023/06/08 09:21:32;;;;;;;7.07;4.82;;;23.00;99.90;;;;;;5054677;28;20586;-34
2023/06/08 09:24:04;;;;;;;7.97;5.00;;;23.30;99.90;;;;;;5047399;28;20124;-34
2023/06/08 09:26:32;;;;;;;12.50;5.30;;;23.40;99.90;;;;;;5053517;28;20037;-34
2023/06/08 09:29:03;;;;;;;10.20;5.05;;;23.60;99.90;;;;;;5054485;28;20036;-34
2023/06/08 09:31:31;;;;;;;10.73;4.82;;;23.50;99.90;;;;;;5043989;28;20091;-35
2023/06/08 09:34:11;;;;;;;7.07;4.57;;;23.70;99.30;;;;;;5050531;28;20041;-37
2023/06/08 09:36:38;;;;;;;9.93;5.03;;;23.70;91.80;;;;;;5065515;28;20033;-34
2023/06/08 09:39:09;;;;;;;8.07;4.50;;;23.80;96.30;;;;;;5051137;28;20029;-35
2023/06/08 09:41:38;;;;;;;11.02;4.95;;;24.00;94.10;;;;;;5047376;28;20037;-35
2023/06/08 09:44:18;;;;;;;10.13;4.68;;;24.20;93.90;;;;;;5047641;28;20043;-35
2023/06/08 09:46:45;;;;;;;7.60;4.28;;;24.50;90.50;;;;;;5051878;28;20393;-35
2023/06/08 09:49:13;;;;;;;6.45;4.68;;;24.70;92.80;;;;;;5055235;28;20049;-36
2023/06/08 09:51:51;;;;;;;10.05;4.90;;;24.70;91.00;;;;;;5045856;28;20045;-35
2023/06/08 09:54:19;;;;;;;11.27;5.07;;;24.80;87.20;;;;;;5052868;28;20098;-35
2023/06/08 09:56:53;;;;;;;8.43;4.57;;;24.90;85.00;;;;;;5028504;28;20040;-35
2023/06/08 09:59:20;;;;;;;8.13;4.10;;;25.00;80.20;;;;;;5045885;28;20036;-35
2023/06/08 10:01:54;;;;;;;7.93;4.78;;;25.40;84.10;;;;;;5042363;28;20040;-34
2023/06/08 10:04:28;;;;;;;6.45;4.55;;;25.40;77.60;;;;;;5050586;28;20056;-37
2023/06/08 10:06:57;;;;;;;8.23;5.03;;;25.50;77.30;;;;;;5051063;28;20439;-35
2023/06/08 10:09:28;;;;;;;12.82;4.53;;;25.40;71.70;;;;;;5055453;28;20044;-35
2023/06/08 10:11:57;;;;;;;9.52;5.00;;;25.50;73.60;;;;;;5048924;28;20120;-35
2023/06/08 10:14:27;;;;;;;7.13;4.47;;;25.40;71.80;;;;;;5055397;28;20036;-35
2023/06/08 10:16:55;;;;;;;6.82;5.00;;;25.90;70.30;;;;;;5049083;28;20287;-34
2023/06/08 10:19:22;;;;;;;8.48;4.25;;;26.10;71.00;;;;;;5039583;28;20079;-35
2023/06/08 10:21:50;;;;;;;6.47;4.32;;;25.90;68.70;;;;;;5041911;28;20111;-36
2023/06/08 10:24:19;;;;;;;8.27;4.43;;;25.70;67.60;;;;;;5048892;28;20037;-36
2023/06/08 10:26:46;;;;;;;9.15;4.90;;;25.20;65.80;;;;;;5051397;28;20041;-35
2023/06/08 10:29:11;;;;;;;7.78;4.50;;;24.90;66.80;;;;;;5054595;28;20037;-34
2023/06/08 10:31:41;;;;;;;10.00;4.25;;;24.80;68.60;;;;;;5054996;28;20035;-36
2023/06/08 10:34:12;;;;;;;8.88;5.07;;;24.70;69.70;;;;;;5052133;28;20528;-34
2023/06/08 10:36:40;;;;;;;9.25;4.38;;;24.60;68.20;;;;;;5044642;28;20529;-34
2023/06/08 10:39:10;;;;;;;8.05;4.50;;;24.60;68.10;;;;;;5052400;28;20036;-34
2023/06/08 10:41:44;;;;;;;7.30;4.43;;;25.00;69.00;;;;;;5042734;28;20048;-37
2023/06/08 10:44:40;;;;;;;9.27;4.70;;;25.50;66.50;;;;;;5052128;28;20044;-35
2023/06/08 10:47:12;;;;;;;6.10;4.05;;;26.00;64.60;;;;;;5049415;28;20032;-35
2023/06/08 10:49:43;;;;;;;7.38;4.30;;;26.50;65.80;;;;;;5047252;28;20044;-35
2023/06/08 10:52:10;;;;;;;9.27;4.90;;;27.00;66.90;;;;;;5050340;28;20052;-42
2023/06/08 10:54:56;;;;;;;9.13;4.50;;;27.10;66.10;;;;;;5047862;28;20032;-35
2023/06/08 10:58:15;;;;;;;8.30;4.55;;;27.20;63.70;;;;;;5046309;28;20077;-37
2023/06/08 11:00:42;;;;;;;7.00;4.53;;;27.30;59.30;;;;;;4946831;28;20043;-35
2023/06/08 11:03:17;;;;;;;7.00;4.72;;;27.40;62.60;;;;;;5045633;28;20058;-35
2023/06/08 11:05:45;;;;;;;8.10;4.85;;;27.70;60.90;;;;;;5063833;28;20032;-36
2023/06/08 11:08:11;;;;;;;5.95;4.50;;;27.50;60.90;;;;;;5041246;28;20037;-36
2023/06/08 11:10:41;;;;;;;8.27;5.25;;;27.90;61.20;;;;;;5037543;28;20469;-35
2023/06/08 11:13:09;;;;;;;7.50;4.40;;;28.00;61.70;;;;;;5041427;28;20077;-35
2023/06/08 11:15:36;;;;;;;6.32;4.50;;;28.40;61.10;;;;;;5041052;28;20034;-37
2023/06/08 11:18:03;;;;;;;5.57;3.92;;;28.60;59.50;;;;;;5050179;28;20043;-37
2023/06/08 11:20:30;;;;;;;6.57;4.28;;;28.80;59.30;;;;;;5048582;28;20044;-36
2023/06/08 11:22:56;;;;;;;8.15;4.88;;;29.00;57.70;;;;;;5041719;28;20032;-36
2023/06/08 11:25:23;;;;;;;5.72;4.32;;;28.80;55.20;;;;;;5042281;28;20055;-37
2023/06/08 11:27:53;;;;;;;8.18;4.78;;;28.60;55.50;;;;;;5042863;28;20072;-36
2023/06/08 11:30:21;;;;;;;7.15;4.05;;;28.10;54.50;;;;;;5043384;28;20056;-35
2023/06/08 11:32:48;;;;;;;9.93;4.57;;;28.20;55.10;;;;;;5042368;28;20394;-36
2023/06/08 11:35:16;;;;;;;7.60;4.70;;;28.50;55.50;;;;;;5037498;28;20401;-35
2023/06/08 11:37:43;;;;;;;7.43;4.95;;;28.60;55.10;;;;;;5050109;28;20116;-35
2023/06/08 11:40:13;;;;;;;8.98;4.72;;;28.90;55.50;;;;;;5042436;28;20509;-36
2023/06/08 11:42:40;;;;;;;8.20;4.30;;;29.30;54.80;;;;;;5044500;28;20043;-35
2023/06/08 11:45:08;;;;;;;7.65;4.93;;;29.50;53.30;;;;;;5054293;28;20036;-35
2023/06/08 11:47:34;;;;;;;7.68;4.20;;;29.60;53.30;;;;;;5054345;28;20044;-35
2023/06/08 11:50:06;;;;;;;7.55;4.28;;;29.80;53.10;;;;;;5053213;28;20549;-36
2023/06/08 11:52:33;;;;;;;8.82;4.40;;;30.20;53.70;;;;;;5054104;28;20093;-37
2023/06/08 11:55:05;;;;;;;7.22;4.20;;;30.30;53.00;;;;;;5052980;28;20040;-37
2023/06/08 11:57:59;;;;;;;4.68;4.15;;;30.40;52.00;;;;;;5043478;28;20041;-35
2023/06/08 12:00:31;;;;;;;8.65;4.78;;;30.30;51.30;;;;;;5033484;28;20445;-36
2023/06/08 12:02:59;;;;;;;6.97;4.80;;;30.70;51.90;;;;;;5054062;28;20398;-35
2023/06/08 12:05:27;;;;;;;6.45;4.22;;;30.70;50.00;;;;;;5054187;28;20504;-39
2023/06/08 12:07:58;;;;;;;6.20;4.30;;;30.90;50.00;;;;;;5053862;28;20045;-37
2023/06/08 12:10:37;;;;;;;7.05;4.38;;;30.80;50.20;;;;;;5053842;28;20045;-37
2023/06/08 12:13:07;;;;;;;12.45;5.30;;;30.50;49.00;;;;;;5053391;28;20043;-36
2023/06/08 12:15:46;;;;;;;7.35;4.53;;;30.30;48.60;;;;;;5054272;28;20041;-36
2023/06/08 12:18:15;;;;;;;7.88;4.63;;;30.30;49.10;;;;;;5054077;28;20477;-36
2023/06/08 12:20:42;;;;;;;7.53;4.00;;;30.10;48.90;;;;;;5050522;28;20037;-36
2023/06/08 12:23:08;;;;;;;6.80;4.10;;;30.10;49.20;;;;;;5043246;28;20397;-36
2023/06/08 12:25:35;;;;;;;8.88;4.65;;;30.30;49.70;;;;;;5034311;28;20044;-37
2023/06/08 12:28:01;;;;;;;7.22;4.32;;;30.30;48.30;;;;;;5053690;28;20045;-36
2023/06/08 12:30:27;;;;;;;8.00;4.53;;;30.30;48.00;;;;;;5050338;28;20032;-38
2023/06/08 12:32:55;;;;;;;6.28;4.25;;;30.40;48.20;;;;;;5039442;28;20036;-36
2023/06/08 12:35:22;;;;;;;6.15;4.22;;;30.30;49.20;;;;;;5036201;28;20460;-36
2023/06/08 12:37:51;;;;;;;6.82;4.85;;;30.50;49.60;;;;;;5047429;28;20440;-34
2023/06/08 12:40:21;;;;;;;7.95;4.43;;;30.80;49.20;;;;;;5052376;28;20040;-37
2023/06/08 12:42:50;;;;;;;8.05;4.22;;;30.70;47.80;;;;;;5047298;28;20393;-39